createdAt,value
2023-05-05T00:00:57.959Z,0.57
2023-05-05T00:03:27.081Z,0.70
2023-05-05T00:05:55.985Z,1.00
2023-05-05T00:08:25.679Z,0.82
2023-05-05T00:10:56.101Z,0.57
2023-05-05T00:13:24.830Z,0.52
2023-05-05T00:15:55.376Z,0.70
2023-05-05T00:18:23.776Z,1.77
2023-05-05T00:20:56.686Z,0.80
2023-05-05T00:23:26.311Z,0.60
2023-05-05T00:25:54.449Z,0.70
2023-05-05T00:28:22.627Z,0.50
2023-05-05T00:30:50.786Z,0.80
2023-05-05T00:33:19.045Z,1.08
2023-05-05T00:35:47.217Z,0.68
2023-05-05T00:38:15.444Z,0.63
2023-05-05T00:40:45.136Z,0.40
2023-05-05T00:43:14.005Z,0.50
2023-05-05T00:45:47.617Z,0.50
2023-05-05T00:48:17.134Z,0.68
2023-05-05T00:50:46.279Z,0.63
2023-05-05T00:53:14.554Z,0.80
2023-05-05T00:55:44.295Z,1.00
2023-05-05T00:58:13.328Z,0.80
2023-05-05T01:00:41.815Z,0.80
2023-05-05T01:03:10.201Z,0.80
2023-05-05T01:05:43.801Z,0.30
2023-05-05T01:08:30.246Z,0.80
2023-05-05T01:11:04.521Z,0.95
2023-05-05T01:13:43.912Z,0.85
2023-05-05T01:16:18.759Z,0.55
2023-05-05T01:18:53.785Z,0.55
2023-05-05T01:21:30.013Z,0.63
2023-05-05T01:24:38.760Z,0.60
2023-05-05T01:27:39.409Z,0.60
2023-05-05T01:30:21.756Z,0.70
2023-05-05T01:32:55.947Z,0.68
2023-05-05T01:35:29.894Z,0.60
2023-05-05T01:38:05.583Z,0.70
2023-05-05T01:40:42.024Z,0.75
2023-05-05T01:43:13.389Z,1.05
2023-05-05T01:45:44.367Z,0.60
2023-05-05T01:48:18.074Z,0.70
2023-05-05T01:50:48.051Z,0.55
2023-05-05T01:53:19.238Z,0.80
2023-05-05T01:55:50.868Z,0.70
2023-05-05T01:58:19.621Z,0.63
2023-05-05T02:00:49.295Z,0.57
2023-05-05T02:03:20.986Z,0.55
2023-05-05T02:05:49.652Z,0.60
2023-05-05T02:08:18.800Z,0.63
2023-05-05T02:10:49.023Z,1.10
2023-05-05T02:13:19.382Z,0.50
2023-05-05T02:15:49.018Z,0.40
2023-05-05T02:18:19.799Z,0.60
2023-05-05T02:20:48.890Z,0.75
2023-05-05T02:23:17.150Z,0.40
2023-05-05T02:25:50.536Z,0.63
2023-05-05T02:28:21.853Z,0.60
2023-05-05T02:30:57.068Z,0.73
2023-05-05T02:33:28.857Z,0.65
2023-05-05T02:35:58.645Z,0.82
2023-05-05T02:38:29.857Z,0.50
2023-05-05T02:41:00.501Z,0.75
2023-05-05T02:43:31.102Z,0.65
2023-05-05T02:45:59.361Z,0.60
2023-05-05T02:48:29.833Z,0.57
2023-05-05T02:50:58.049Z,0.93
2023-05-05T02:53:28.173Z,0.82
2023-05-05T02:56:03.121Z,0.50
2023-05-05T02:58:38.580Z,0.70
2023-05-05T03:01:17.464Z,0.40
2023-05-05T03:03:58.529Z,0.60
2023-05-05T03:06:29.524Z,0.52
2023-05-05T03:09:03.389Z,0.75
2023-05-05T03:11:36.951Z,0.80
2023-05-05T03:14:10.401Z,1.00
2023-05-05T03:16:40.643Z,0.70
2023-05-05T03:19:11.960Z,0.80
2023-05-05T03:21:40.999Z,0.80
2023-05-05T03:24:16.353Z,0.60
2023-05-05T03:26:45.721Z,0.95
2023-05-05T03:29:14.100Z,0.60
2023-05-05T03:31:42.499Z,0.80
2023-05-05T03:34:11.904Z,0.80
2023-05-05T03:36:40.588Z,0.60
2023-05-05T03:39:08.838Z,0.70
2023-05-05T03:41:36.953Z,0.50
2023-05-05T03:44:05.345Z,0.70
2023-05-05T03:46:33.461Z,0.70
2023-05-05T03:49:01.458Z,0.95
2023-05-05T03:51:31.210Z,0.73
2023-05-05T03:53:59.212Z,0.77
2023-05-05T03:56:27.267Z,0.93
2023-05-05T03:58:55.361Z,0.68
2023-05-05T04:01:23.473Z,0.63
2023-05-05T04:03:51.837Z,0.55
2023-05-05T04:06:19.943Z,0.45
2023-05-05T04:08:49.308Z,0.57
2023-05-05T04:11:17.330Z,0.90
2023-05-05T04:13:46.035Z,0.63
2023-05-05T04:16:14.095Z,0.77
2023-05-05T04:18:42.242Z,1.10
2023-05-05T04:21:10.291Z,0.43
2023-05-05T04:23:38.296Z,0.85
2023-05-05T04:26:07.766Z,0.70
2023-05-05T04:28:35.796Z,0.88
2023-05-05T04:31:05.127Z,0.80
2023-05-05T04:33:33.372Z,0.95
2023-05-05T04:36:01.402Z,0.47
2023-05-05T04:38:29.445Z,0.60
2023-05-05T04:40:57.504Z,0.68
2023-05-05T04:43:27.068Z,0.93
2023-05-05T04:45:55.211Z,0.90
2023-05-05T04:48:23.274Z,0.60
2023-05-05T04:50:51.358Z,0.60
2023-05-05T04:53:19.395Z,0.80
2023-05-05T04:55:47.474Z,0.50
2023-05-05T04:58:15.913Z,0.63
2023-05-05T05:00:45.319Z,1.13
2023-05-05T05:03:13.487Z,0.55
2023-05-05T05:05:41.590Z,1.00
2023-05-05T05:08:09.766Z,0.40
2023-05-05T05:10:37.887Z,0.70
2023-05-05T05:13:06.023Z,0.65
2023-05-05T05:15:34.115Z,0.70
2023-05-05T05:18:03.666Z,0.95
2023-05-05T05:20:32.129Z,0.63
2023-05-05T05:23:02.107Z,0.85
2023-05-05T05:25:30.721Z,0.70
2023-05-05T05:28:09.379Z,0.70
2023-05-05T05:30:38.650Z,0.98
2023-05-05T05:33:08.239Z,0.77
2023-05-05T05:35:36.316Z,1.42
2023-05-05T05:38:04.392Z,1.05
2023-05-05T05:40:32.630Z,0.75
2023-05-05T05:43:00.985Z,2.22
2023-05-05T05:45:29.166Z,2.25
2023-05-05T05:47:57.293Z,1.80
2023-05-05T05:50:28.692Z,1.20
2023-05-05T05:52:56.945Z,0.57
2023-05-05T05:55:24.995Z,0.95
2023-05-05T05:57:53.029Z,0.95
2023-05-05T06:00:21.322Z,0.80
2023-05-05T06:02:51.269Z,1.00
2023-05-05T06:05:19.576Z,0.80
2023-05-05T06:07:48.959Z,0.85
2023-05-05T06:10:27.257Z,0.73
2023-05-05T06:12:55.851Z,0.80
2023-05-05T06:15:23.916Z,0.75
2023-05-05T06:17:52.008Z,1.23
2023-05-05T06:20:20.302Z,0.90
2023-05-05T06:22:49.852Z,3.00
2023-05-05T06:25:18.169Z,1.75
2023-05-05T06:27:46.350Z,1.00
2023-05-05T06:30:17.893Z,1.10
2023-05-05T06:32:46.102Z,0.95
2023-05-05T06:35:14.274Z,1.10
2023-05-05T06:37:42.343Z,1.20
2023-05-05T06:40:12.646Z,1.08
2023-05-05T06:42:41.395Z,1.33
2023-05-05T06:45:10.524Z,1.10
2023-05-05T06:47:38.910Z,1.25
2023-05-05T06:50:09.185Z,1.08
2023-05-05T06:52:37.570Z,1.23
2023-05-05T06:55:06.350Z,1.05
2023-05-05T06:57:35.862Z,0.98
2023-05-05T07:00:05.850Z,1.02
2023-05-05T07:02:34.236Z,1.15
2023-05-05T07:05:02.490Z,1.33
2023-05-05T07:07:31.727Z,1.60
2023-05-05T07:10:00.037Z,1.50
2023-05-05T07:12:30.979Z,1.30
2023-05-05T07:15:04.846Z,1.70
2023-05-05T07:17:37.654Z,1.33
2023-05-05T07:20:06.569Z,1.70
2023-05-05T07:22:34.766Z,1.27
2023-05-05T07:25:03.841Z,1.00
2023-05-05T07:27:32.304Z,1.23
2023-05-05T07:30:02.364Z,1.45
2023-05-05T07:32:34.202Z,1.75
2023-05-05T07:35:02.358Z,1.45
2023-05-05T07:37:30.591Z,1.50
2023-05-05T07:39:58.719Z,1.42
2023-05-05T07:42:26.736Z,1.75
2023-05-05T07:44:54.830Z,1.83
2023-05-05T07:47:24.378Z,1.75
2023-05-05T07:49:52.466Z,1.50
2023-05-05T07:52:25.236Z,1.80
2023-05-05T07:55:01.579Z,2.00
2023-05-05T07:57:29.743Z,1.90
2023-05-05T07:59:57.848Z,2.20
2023-05-05T08:02:27.375Z,1.77
2023-05-05T08:04:55.555Z,1.50
2023-05-05T08:07:23.675Z,1.95
2023-05-05T08:09:51.754Z,1.80
2023-05-05T08:12:20.076Z,2.00
2023-05-05T08:14:48.454Z,2.15
2023-05-05T08:17:19.765Z,1.88
2023-05-05T08:19:53.583Z,1.70
2023-05-05T08:22:22.469Z,1.88
2023-05-05T08:24:50.584Z,1.67
2023-05-05T08:27:18.650Z,2.15
2023-05-05T08:29:46.732Z,1.75
2023-05-05T08:32:16.311Z,1.80
2023-05-05T08:34:44.439Z,1.98
2023-05-05T08:37:13.953Z,1.80
2023-05-05T08:39:42.082Z,2.08
2023-05-05T08:42:10.498Z,1.88
2023-05-05T08:44:38.615Z,1.88
2023-05-05T08:47:07.393Z,1.45
2023-05-05T08:49:44.814Z,2.05
2023-05-05T08:52:16.640Z,1.98
2023-05-05T08:54:51.155Z,2.13
2023-05-05T08:57:25.764Z,2.35
2023-05-05T08:59:55.185Z,2.08
2023-05-05T09:02:24.864Z,2.00
2023-05-05T09:04:53.747Z,2.30
2023-05-05T09:07:23.636Z,1.67
2023-05-05T09:09:51.995Z,2.70
2023-05-05T09:12:20.762Z,2.97
2023-05-05T09:14:49.052Z,2.22
2023-05-05T09:17:27.270Z,1.98
2023-05-05T09:20:04.320Z,1.83
2023-05-05T09:22:38.582Z,2.03
2023-05-05T09:25:08.548Z,2.13
2023-05-05T09:27:42.013Z,1.90
2023-05-05T09:30:11.775Z,1.58
2023-05-05T09:32:47.962Z,2.28
2023-05-05T09:35:16.719Z,1.95
2023-05-05T09:37:46.556Z,1.80
2023-05-05T09:40:16.536Z,2.30
2023-05-05T09:42:46.034Z,2.10
2023-05-05T09:45:27.486Z,2.30
2023-05-05T09:47:59.863Z,2.83
2023-05-05T09:50:30.954Z,2.30
2023-05-05T09:53:02.750Z,1.70
2023-05-05T09:55:32.153Z,2.40
2023-05-05T09:58:19.317Z,1.75
2023-05-05T10:00:47.856Z,1.70
2023-05-05T10:03:16.185Z,1.40
2023-05-05T10:05:51.983Z,1.73
2023-05-05T10:08:24.878Z,2.17
2023-05-05T10:10:54.933Z,1.95
2023-05-05T10:13:25.367Z,2.22
2023-05-05T10:15:55.973Z,2.90
2023-05-05T10:18:25.805Z,1.95
2023-05-05T10:20:58.493Z,1.65
2023-05-05T10:23:32.503Z,1.95
2023-05-05T10:26:03.658Z,1.55
2023-05-05T10:28:35.113Z,1.15
2023-05-05T10:31:24.617Z,1.95
2023-05-05T10:33:56.812Z,1.60
2023-05-05T10:36:26.593Z,1.70
2023-05-05T10:38:58.665Z,1.23
2023-05-05T10:41:27.218Z,0.88
2023-05-05T10:43:58.382Z,1.40
2023-05-05T10:46:27.906Z,1.08
2023-05-05T10:49:00.929Z,1.30
2023-05-05T10:51:40.489Z,1.60
2023-05-05T10:54:18.084Z,1.52
2023-05-05T10:56:48.134Z,1.30
2023-05-05T10:59:41.887Z,1.08
2023-05-05T11:02:27.286Z,1.23
2023-05-05T11:05:09.760Z,1.27
2023-05-05T11:07:38.253Z,1.30
2023-05-05T11:10:09.289Z,1.30
2023-05-05T11:13:15.345Z,1.75
2023-05-05T11:15:43.521Z,1.80
2023-05-05T11:18:35.918Z,1.63
2023-05-05T11:21:18.511Z,1.58
2023-05-05T11:23:48.809Z,1.33
2023-05-05T11:26:19.636Z,1.50
2023-05-05T11:29:02.335Z,1.50
2023-05-05T11:31:33.765Z,1.77
2023-05-05T11:34:31.150Z,2.00
2023-05-05T11:37:03.357Z,1.80
2023-05-05T11:39:41.523Z,1.60
2023-05-05T11:42:26.649Z,2.70
2023-05-05T11:44:55.806Z,1.50
2023-05-05T11:47:32.074Z,1.90
2023-05-05T11:50:18.549Z,1.90
2023-05-05T11:52:46.946Z,1.60
2023-05-05T11:55:22.191Z,1.40
2023-05-05T11:57:51.974Z,1.50
2023-05-05T12:00:20.940Z,1.52
2023-05-05T12:02:58.159Z,1.85
2023-05-05T12:05:26.527Z,1.70
2023-05-05T12:07:58.760Z,1.58
2023-05-05T12:10:26.996Z,1.70
2023-05-05T12:12:56.636Z,1.30
2023-05-05T12:15:32.354Z,1.17
2023-05-05T12:18:02.755Z,1.45
2023-05-05T12:20:32.666Z,1.23
2023-05-05T12:23:02.671Z,1.17
2023-05-05T12:25:38.203Z,1.45
2023-05-05T12:28:09.344Z,1.50
2023-05-05T12:30:37.967Z,1.83
2023-05-05T12:33:12.229Z,1.25
2023-05-05T12:35:41.519Z,2.83
2023-05-05T12:38:09.656Z,1.75
2023-05-05T12:40:45.256Z,1.70
2023-05-05T12:43:27.245Z,1.63
2023-05-05T12:46:03.413Z,1.60
2023-05-05T12:48:31.967Z,1.50
2023-05-05T12:51:23.418Z,1.30
2023-05-05T12:54:03.541Z,1.55
2023-05-05T12:56:36.729Z,1.40
2023-05-05T12:59:07.743Z,1.67
2023-05-05T13:01:36.661Z,1.67
2023-05-05T13:04:10.837Z,1.25
2023-05-05T13:06:39.766Z,1.30
2023-05-05T13:09:09.032Z,1.40
2023-05-05T13:11:37.996Z,1.90
2023-05-05T13:14:08.702Z,1.52
2023-05-05T13:16:37.053Z,1.35
2023-05-05T13:19:05.164Z,1.50
2023-05-05T13:21:33.382Z,1.80
2023-05-05T13:24:20.773Z,1.50
2023-05-05T13:26:50.300Z,1.25
2023-05-05T13:29:20.384Z,1.30
2023-05-05T13:31:48.857Z,1.15
2023-05-05T13:34:17.486Z,1.15
2023-05-05T13:36:45.982Z,1.40
2023-05-05T13:39:14.172Z,1.50
2023-05-05T13:41:44.841Z,1.23
2023-05-05T13:44:13.814Z,1.38
2023-05-05T13:46:43.855Z,1.10
2023-05-05T13:49:12.073Z,1.30
2023-05-05T13:51:40.528Z,0.80
2023-05-05T13:54:17.106Z,1.50
2023-05-05T13:56:45.323Z,1.27
2023-05-05T13:59:13.711Z,1.00
2023-05-05T14:01:46.485Z,1.10
2023-05-05T14:04:14.784Z,0.82
2023-05-05T14:06:42.968Z,1.40
2023-05-05T14:09:11.412Z,1.02
2023-05-05T14:11:39.493Z,0.77
2023-05-05T14:14:07.844Z,1.13
2023-05-05T14:16:36.190Z,0.80
2023-05-05T14:19:06.333Z,0.55
2023-05-05T14:21:34.688Z,0.73
2023-05-05T14:24:02.914Z,0.93
2023-05-05T14:26:31.185Z,0.52
2023-05-05T14:28:59.400Z,1.13
2023-05-05T14:31:28.613Z,1.23
2023-05-05T14:33:56.846Z,0.95
2023-05-05T14:36:26.893Z,0.93
2023-05-05T14:38:55.175Z,0.90
2023-05-05T14:41:23.687Z,1.02
2023-05-05T14:43:51.874Z,1.00
2023-05-05T14:46:20.104Z,0.98
2023-05-05T14:48:48.554Z,0.98
2023-05-05T14:51:16.885Z,1.10
2023-05-05T14:53:46.654Z,1.10
2023-05-05T14:56:15.329Z,1.05
2023-05-05T14:58:43.693Z,0.85
2023-05-05T15:01:11.868Z,0.98
2023-05-05T15:03:40.126Z,0.82
2023-05-05T15:06:09.461Z,0.70
2023-05-05T15:08:39.042Z,0.75
2023-05-05T15:11:08.876Z,0.63
2023-05-05T15:13:38.643Z,0.70
2023-05-05T15:16:07.535Z,0.88
2023-05-05T15:18:35.780Z,0.65
2023-05-05T15:21:03.873Z,0.70
2023-05-05T15:23:32.088Z,0.40
2023-05-05T15:26:00.239Z,0.65
2023-05-05T15:28:29.828Z,0.80
2023-05-05T15:30:57.967Z,0.93
2023-05-05T15:33:26.120Z,0.80
2023-05-05T15:35:54.191Z,0.70
2023-05-05T15:38:22.284Z,0.55
2023-05-05T15:40:50.421Z,0.70
2023-05-05T15:43:18.662Z,0.45
2023-05-05T15:45:48.273Z,0.60
2023-05-05T15:48:16.353Z,1.08
2023-05-05T15:50:44.587Z,0.75
2023-05-05T15:53:12.701Z,1.08
2023-05-05T15:55:40.862Z,0.60
2023-05-05T15:58:09.121Z,1.00
2023-05-05T16:00:37.433Z,0.65
2023-05-05T16:03:07.028Z,0.88
2023-05-05T16:05:35.192Z,0.80
2023-05-05T16:08:09.487Z,0.98
2023-05-05T16:10:37.773Z,0.82
2023-05-05T16:13:05.992Z,0.93
2023-05-05T16:15:35.278Z,0.98
2023-05-05T16:18:03.436Z,1.30
2023-05-05T16:20:32.969Z,1.00
2023-05-05T16:23:01.101Z,0.88
2023-05-05T16:25:29.317Z,1.20
2023-05-05T16:27:57.664Z,1.08
2023-05-05T16:30:26.033Z,1.05
2023-05-05T16:32:54.754Z,1.10
2023-05-05T16:35:24.064Z,0.82
2023-05-05T16:37:53.640Z,1.05
2023-05-05T16:40:22.989Z,0.98
2023-05-05T16:42:51.243Z,1.10
2023-05-05T16:45:19.470Z,1.00
2023-05-05T16:47:47.669Z,1.08
2023-05-05T16:50:17.313Z,1.10
2023-05-05T16:52:51.744Z,0.90
2023-05-05T16:55:21.567Z,0.60
2023-05-05T16:57:49.747Z,0.95
2023-05-05T17:00:18.166Z,1.10
2023-05-05T17:02:46.360Z,1.40
2023-05-05T17:05:14.474Z,1.20
2023-05-05T17:07:42.653Z,1.10
2023-05-05T17:10:11.499Z,1.25
2023-05-05T17:12:40.944Z,1.27
2023-05-05T17:15:10.172Z,1.42
2023-05-05T17:17:39.019Z,0.88
2023-05-05T17:20:09.356Z,0.73
2023-05-05T17:22:37.458Z,0.77
2023-05-05T17:25:06.190Z,1.27
2023-05-05T17:27:34.320Z,1.00
2023-05-05T17:30:03.889Z,0.80
2023-05-05T17:32:32.054Z,0.98
2023-05-05T17:35:00.181Z,1.27
2023-05-05T17:37:28.402Z,1.05
2023-05-05T17:39:56.541Z,1.13
2023-05-05T17:42:27.016Z,1.70
2023-05-05T17:44:55.161Z,1.15
2023-05-05T17:47:24.657Z,0.90
2023-05-05T17:49:54.607Z,1.00
2023-05-05T17:52:23.345Z,1.48
2023-05-05T17:54:51.879Z,1.23
2023-05-05T17:57:21.160Z,1.00
2023-05-05T17:59:50.363Z,1.00
2023-05-05T18:02:19.093Z,0.98
2023-05-05T18:04:48.639Z,2.70
2023-05-05T18:07:16.671Z,0.98
2023-05-05T18:09:44.773Z,0.80
2023-05-05T18:12:12.837Z,0.50
2023-05-05T18:14:41.033Z,0.47
2023-05-05T18:17:09.073Z,0.30
2023-05-05T18:19:37.989Z,0.60
2023-05-05T18:22:07.464Z,0.30
2023-05-05T18:24:35.917Z,0.50
2023-05-05T18:27:06.362Z,0.60
2023-05-05T18:29:35.206Z,0.43
2023-05-05T18:32:03.420Z,0.40
2023-05-05T18:34:31.497Z,0.40
2023-05-05T18:37:00.537Z,0.40
2023-05-05T18:39:30.403Z,0.30
2023-05-05T18:41:58.549Z,0.40
2023-05-05T18:44:26.622Z,0.45
2023-05-05T18:46:54.714Z,0.50
2023-05-05T18:49:24.738Z,0.70
2023-05-05T18:51:53.705Z,0.40
2023-05-05T18:54:22.091Z,0.50
2023-05-05T18:56:51.854Z,0.50
2023-05-05T18:59:19.933Z,0.60
2023-05-05T19:01:48.109Z,0.60
2023-05-05T19:04:30.051Z,0.60
2023-05-05T19:06:59.798Z,0.80
2023-05-05T19:09:28.163Z,0.63
2023-05-05T19:11:57.775Z,0.80
2023-05-05T19:14:26.181Z,0.77
2023-05-05T19:16:55.843Z,0.82
2023-05-05T19:19:24.242Z,0.70
2023-05-05T19:21:52.562Z,0.60
2023-05-05T19:24:20.636Z,0.57
2023-05-05T19:26:48.819Z,0.70
2023-05-05T19:29:19.003Z,0.65
2023-05-05T19:31:47.472Z,1.13
2023-05-05T19:34:15.694Z,0.77
2023-05-05T19:36:43.997Z,0.65
2023-05-05T19:39:13.691Z,0.80
2023-05-05T19:41:43.431Z,0.70
2023-05-05T19:44:11.595Z,0.75
2023-05-05T19:46:41.278Z,0.98
2023-05-05T19:49:09.485Z,0.85
2023-05-05T19:51:37.627Z,1.10
2023-05-05T19:54:06.122Z,1.00
2023-05-05T19:56:34.218Z,0.80
2023-05-05T19:59:05.356Z,1.08
2023-05-05T20:01:34.160Z,0.70
2023-05-05T20:04:04.451Z,0.75
2023-05-05T20:06:32.947Z,0.98
2023-05-05T20:09:01.334Z,0.75
2023-05-05T20:11:29.861Z,0.90
2023-05-05T20:13:58.545Z,0.80
2023-05-05T20:16:27.006Z,1.20
2023-05-05T20:18:55.524Z,0.85
2023-05-05T20:21:25.067Z,0.70
2023-05-05T20:23:54.545Z,1.00
2023-05-05T20:26:24.459Z,0.50
2023-05-05T20:28:52.744Z,0.93
2023-05-05T20:31:21.074Z,0.90
2023-05-05T20:33:49.539Z,1.23
2023-05-05T20:36:18.488Z,0.90
2023-05-05T20:38:48.252Z,0.77
2023-05-05T20:41:16.454Z,1.20
2023-05-05T20:43:44.545Z,1.13
2023-05-05T20:46:13.418Z,0.90
2023-05-05T20:48:42.962Z,0.95
2023-05-05T20:51:11.515Z,1.00
2023-05-05T20:53:39.837Z,1.20
2023-05-05T20:56:09.527Z,1.05
2023-05-05T20:58:37.861Z,0.68
2023-05-05T21:01:06.193Z,1.00
2023-05-05T21:03:34.481Z,1.05
2023-05-05T21:06:03.518Z,0.65
2023-05-05T21:08:31.915Z,0.82
2023-05-05T21:10:59.996Z,1.40
2023-05-05T21:13:29.580Z,1.23
2023-05-05T21:15:57.736Z,1.30
2023-05-05T21:18:27.650Z,1.50
2023-05-05T21:20:56.316Z,1.20
2023-05-05T21:23:24.559Z,0.90
2023-05-05T21:25:52.736Z,0.98
2023-05-05T21:28:20.944Z,1.10
2023-05-05T21:31:10.408Z,1.38
2023-05-05T21:33:39.640Z,0.90
2023-05-05T21:36:08.129Z,1.08
2023-05-05T21:38:36.346Z,1.27
2023-05-05T21:41:04.634Z,0.88
2023-05-05T21:43:32.819Z,1.13
2023-05-05T21:46:05.741Z,1.30
2023-05-05T21:48:34.070Z,1.10
2023-05-05T21:51:02.495Z,0.70
2023-05-05T21:53:31.187Z,1.20
2023-05-05T21:56:00.605Z,1.30
2023-05-05T21:58:29.264Z,0.93
2023-05-05T22:00:57.457Z,1.35
2023-05-05T22:03:27.254Z,1.60
2023-05-05T22:05:55.516Z,0.90
2023-05-05T22:08:23.688Z,1.17
2023-05-05T22:10:52.204Z,1.05
2023-05-05T22:13:20.567Z,1.63
2023-05-05T22:15:48.913Z,1.50
2023-05-05T22:18:17.193Z,1.30
2023-05-05T22:20:49.276Z,1.35
2023-05-05T22:23:17.498Z,1.27
2023-05-05T22:25:46.674Z,1.23
2023-05-05T22:28:15.165Z,1.55
2023-05-05T22:30:43.494Z,1.83
2023-05-05T22:33:11.655Z,1.52
2023-05-05T22:35:39.850Z,1.50
2023-05-05T22:38:09.694Z,1.52
2023-05-05T22:40:37.987Z,1.70
2023-05-05T22:43:06.250Z,1.33
2023-05-05T22:45:34.795Z,1.52
2023-05-05T22:48:03.285Z,1.67
2023-05-05T22:50:31.485Z,1.50
2023-05-05T22:52:59.937Z,1.20
2023-05-05T22:55:29.552Z,1.55
2023-05-05T22:57:57.694Z,1.77
2023-05-05T23:00:25.892Z,1.10
2023-05-05T23:02:54.069Z,1.60
2023-05-05T23:05:22.499Z,1.30
2023-05-05T23:07:50.800Z,1.52
2023-05-05T23:10:19.128Z,1.40
2023-05-05T23:12:48.641Z,1.50
2023-05-05T23:15:16.964Z,1.40
2023-05-05T23:17:45.118Z,1.55
2023-05-05T23:20:14.092Z,1.20
2023-05-05T23:22:42.298Z,1.23
2023-05-05T23:25:11.093Z,1.25
2023-05-05T23:27:41.307Z,1.13
2023-05-05T23:30:12.280Z,1.25
2023-05-05T23:32:40.698Z,1.55
2023-05-05T23:35:09.861Z,1.52
2023-05-05T23:37:38.166Z,1.73
2023-05-05T23:40:07.998Z,1.17
2023-05-05T23:42:36.138Z,1.45
2023-05-05T23:45:05.367Z,1.50
2023-05-05T23:47:35.057Z,1.48
2023-05-05T23:50:03.501Z,1.88
2023-05-05T23:52:31.748Z,1.08
2023-05-05T23:55:00.001Z,1.20
2023-05-05T23:57:28.156Z,1.42
2023-05-05T23:59:56.322Z,1.60
